Terminal Aerodrome Forecast
Issued by NWS

Home | Current Version | Previous Version | Text Only | Print | Product List | Glossary On
Versions: 1 2 3 4 5 6 7 8 9 10 11 12 13 14 15 16 17 18 19 20 21 22 23 24 25 26 27 28 29 30 31 32 33
000
FTUS43 KILX 230525
TAFBMI
TAF
KBMI 230525Z 2306/2406 25011KT P6SM -RA BKN015 OVC025
     FM230800 24009KT P6SM -SHRASN OVC008
     FM231200 28011KT P6SM VCSH OVC012
     FM231400 29011KT P6SM OVC015
     FM231800 30014G22KT P6SM OVC020
     FM240100 31009KT P6SM BKN035=

USA.gov is the U.S. government's official web portal to all federal, state and local government web resources and services.